sensor_id;sensor_type;location;lat;lon;timestamp;pressure;altitude;pressure_sealevel;temperature;humidity
15932;BME280;8065;49.520;11.284;2022-12-13T00:01:51;97043.06;;;-2.24;69.00
15932;BME280;8065;49.520;11.284;2022-12-13T00:04:19;97040.97;;;-2.27;69.15
15932;BME280;8065;49.520;11.284;2022-12-13T00:06:45;97038.28;;;-2.38;69.58
15932;BME280;8065;49.520;11.284;2022-12-13T00:09:15;97036.16;;;-2.41;69.49
15932;BME280;8065;49.520;11.284;2022-12-13T00:11:43;97031.59;;;-2.28;69.39
15932;BME280;8065;49.520;11.284;2022-12-13T00:14:10;97026.94;;;-2.26;69.82
15932;BME280;8065;49.520;11.284;2022-12-13T00:16:38;97042.63;;;-2.43;69.89
15932;BME280;8065;49.520;11.284;2022-12-13T00:19:05;97032.84;;;-2.63;69.95
15932;BME280;8065;49.520;11.284;2022-12-13T00:21:32;97029.78;;;-2.55;70.25
15932;BME280;8065;49.520;11.284;2022-12-13T00:24:00;97024.00;;;-2.35;69.56
15932;BME280;8065;49.520;11.284;2022-12-13T00:26:30;97031.53;;;-2.34;69.40
15932;BME280;8065;49.520;11.284;2022-12-13T00:28:58;97031.06;;;-2.31;69.80
15932;BME280;8065;49.520;11.284;2022-12-13T00:31:25;97026.94;;;-2.26;69.30
15932;BME280;8065;49.520;11.284;2022-12-13T00:33:52;97019.63;;;-2.29;69.25
15932;BME280;8065;49.520;11.284;2022-12-13T00:36:19;97030.97;;;-2.41;69.79
15932;BME280;8065;49.520;11.284;2022-12-13T00:38:45;97035.75;;;-2.27;68.98
15932;BME280;8065;49.520;11.284;2022-12-13T00:41:25;97026.53;;;-2.13;68.49
15932;BME280;8065;49.520;11.284;2022-12-13T00:43:53;97022.50;;;-2.26;68.32
15932;BME280;8065;49.520;11.284;2022-12-13T00:46:20;97030.72;;;-2.39;68.56
15932;BME280;8065;49.520;11.284;2022-12-13T00:48:49;97030.41;;;-2.43;69.60
15932;BME280;8065;49.520;11.284;2022-12-13T00:51:16;97023.50;;;-2.59;69.44
15932;BME280;8065;49.520;11.284;2022-12-13T00:53:42;97018.88;;;-2.52;69.56
15932;BME280;8065;49.520;11.284;2022-12-13T00:56:09;97021.19;;;-2.55;68.90
15932;BME280;8065;49.520;11.284;2022-12-13T00:58:37;97017.59;;;-2.49;69.49
15932;BME280;8065;49.520;11.284;2022-12-13T01:01:06;97010.63;;;-2.44;69.25
15932;BME280;8065;49.520;11.284;2022-12-13T01:03:34;97014.88;;;-2.06;68.02
15932;BME280;8065;49.520;11.284;2022-12-13T01:06:07;97011.03;;;-1.98;68.13
15932;BME280;8065;49.520;11.284;2022-12-13T01:08:34;97013.19;;;-1.90;67.90
15932;BME280;8065;49.520;11.284;2022-12-13T01:11:00;97010.47;;;-2.05;67.50
15932;BME280;8065;49.520;11.284;2022-12-13T01:13:28;97008.50;;;-1.88;68.12
15932;BME280;8065;49.520;11.284;2022-12-13T01:15:54;97003.13;;;-1.76;67.22
15932;BME280;8065;49.520;11.284;2022-12-13T01:18:22;97006.78;;;-2.09;68.20
15932;BME280;8065;49.520;11.284;2022-12-13T01:20:57;96998.84;;;-2.24;68.52
15932;BME280;8065;49.520;11.284;2022-12-13T01:23:24;96998.25;;;-2.32;68.69
15932;BME280;8065;49.520;11.284;2022-12-13T01:25:51;96992.56;;;-2.28;68.12
15932;BME280;8065;49.520;11.284;2022-12-13T01:28:18;96998.75;;;-2.35;67.80
15932;BME280;8065;49.520;11.284;2022-12-13T01:30:52;96998.44;;;-2.70;69.18
15932;BME280;8065;49.520;11.284;2022-12-13T01:33:19;96993.84;;;-2.58;69.48
15932;BME280;8065;49.520;11.284;2022-12-13T01:35:47;96996.69;;;-2.59;69.13
15932;BME280;8065;49.520;11.284;2022-12-13T01:38:13;97000.06;;;-2.64;69.67
15932;BME280;8065;49.520;11.284;2022-12-13T01:40:42;96998.44;;;-2.70;69.56
15932;BME280;8065;49.520;11.284;2022-12-13T01:43:11;97007.88;;;-2.59;69.20
15932;BME280;8065;49.520;11.284;2022-12-13T01:45:37;97002.75;;;-2.54;69.16
15932;BME280;8065;49.520;11.284;2022-12-13T01:48:06;97003.28;;;-2.79;70.09
15932;BME280;8065;49.520;11.284;2022-12-13T01:50:38;97007.81;;;-2.69;69.02
15932;BME280;8065;49.520;11.284;2022-12-13T01:53:08;97004.03;;;-2.83;69.14
15932;BME280;8065;49.520;11.284;2022-12-13T01:55:38;97002.66;;;-3.13;70.31
15932;BME280;8065;49.520;11.284;2022-12-13T01:58:05;96995.41;;;-3.11;69.87
15932;BME280;8065;49.520;11.284;2022-12-13T02:00:34;97001.69;;;-3.07;69.53
15932;BME280;8065;49.520;11.284;2022-12-13T02:03:01;96997.56;;;-3.03;70.47
15932;BME280;8065;49.520;11.284;2022-12-13T02:05:32;96993.41;;;-3.04;69.81
15932;BME280;8065;49.520;11.284;2022-12-13T02:08:00;96992.47;;;-2.92;69.57
15932;BME280;8065;49.520;11.284;2022-12-13T02:10:30;96990.81;;;-3.04;69.18
15932;BME280;8065;49.520;11.284;2022-12-13T02:12:57;96985.81;;;-2.83;69.25
15932;BME280;8065;49.520;11.284;2022-12-13T02:15:27;96982.09;;;-2.92;69.56
15932;BME280;8065;49.520;11.284;2022-12-13T02:18:10;96986.25;;;-2.91;69.37
15932;BME280;8065;49.520;11.284;2022-12-13T02:20:56;96977.25;;;-3.06;69.93
15932;BME280;8065;49.520;11.284;2022-12-13T02:23:40;96983.44;;;-3.12;69.99
15932;BME280;8065;49.520;11.284;2022-12-13T02:26:32;96989.78;;;-3.03;68.82
15932;BME280;8065;49.520;11.284;2022-12-13T02:29:22;96990.59;;;-3.41;70.01
15932;BME280;8065;49.520;11.284;2022-12-13T02:31:58;96988.00;;;-3.63;70.01
15932;BME280;8065;49.520;11.284;2022-12-13T02:34:34;96984.56;;;-3.46;70.18
15932;BME280;8065;49.520;11.284;2022-12-13T02:37:05;96981.50;;;-3.43;70.44
15932;BME280;8065;49.520;11.284;2022-12-13T02:39:34;96982.63;;;-3.34;70.02
15932;BME280;8065;49.520;11.284;2022-12-13T02:42:04;96979.31;;;-3.30;70.44
15932;BME280;8065;49.520;11.284;2022-12-13T02:44:35;96976.97;;;-3.31;70.19
15932;BME280;8065;49.520;11.284;2022-12-13T02:47:09;96975.56;;;-3.17;69.44
15932;BME280;8065;49.520;11.284;2022-12-13T02:49:40;96978.91;;;-3.21;69.49
15932;BME280;8065;49.520;11.284;2022-12-13T02:52:09;96975.28;;;-3.20;69.94
15932;BME280;8065;49.520;11.284;2022-12-13T02:54:37;96973.53;;;-3.15;68.98
15932;BME280;8065;49.520;11.284;2022-12-13T02:57:27;96976.78;;;-3.03;68.76
15932;BME280;8065;49.520;11.284;2022-12-13T02:59:55;96971.09;;;-3.00;68.65
15932;BME280;8065;49.520;11.284;2022-12-13T03:02:32;96968.25;;;-2.98;68.83
15932;BME280;8065;49.520;11.284;2022-12-13T03:05:11;96972.13;;;-3.01;68.26
15932;BME280;8065;49.520;11.284;2022-12-13T03:08:08;96961.03;;;-3.18;68.90
15932;BME280;8065;49.520;11.284;2022-12-13T03:10:45;96961.63;;;-3.33;70.27
15932;BME280;8065;49.520;11.284;2022-12-13T03:13:20;96961.75;;;-3.22;69.43
15932;BME280;8065;49.520;11.284;2022-12-13T03:16:07;96964.69;;;-3.14;69.55
15932;BME280;8065;49.520;11.284;2022-12-13T03:18:36;96963.13;;;-3.15;69.84
15932;BME280;8065;49.520;11.284;2022-12-13T03:21:05;96960.59;;;-3.10;69.87
15932;BME280;8065;49.520;11.284;2022-12-13T03:23:33;96955.09;;;-3.13;68.80
15932;BME280;8065;49.520;11.284;2022-12-13T03:26:02;96955.41;;;-3.10;69.62
15932;BME280;8065;49.520;11.284;2022-12-13T03:28:30;96958.78;;;-3.09;68.93
15932;BME280;8065;49.520;11.284;2022-12-13T03:30:56;96959.28;;;-3.34;70.19
15932;BME280;8065;49.520;11.284;2022-12-13T03:33:23;96964.09;;;-3.65;71.26
15932;BME280;8065;49.520;11.284;2022-12-13T03:35:51;96965.13;;;-3.66;70.66
15932;BME280;8065;49.520;11.284;2022-12-13T03:38:18;96966.75;;;-3.59;71.01
15932;BME280;8065;49.520;11.284;2022-12-13T03:40:44;96952.28;;;-3.55;70.66
15932;BME280;8065;49.520;11.284;2022-12-13T03:43:11;96952.69;;;-3.42;70.19
15932;BME280;8065;49.520;11.284;2022-12-13T03:45:37;96958.19;;;-3.38;70.03
15932;BME280;8065;49.520;11.284;2022-12-13T03:48:04;96950.31;;;-3.00;69.15
15932;BME280;8065;49.520;11.284;2022-12-13T03:50:30;96951.41;;;-2.95;67.95
15932;BME280;8065;49.520;11.284;2022-12-13T03:52:59;96945.38;;;-3.23;68.80
15932;BME280;8065;49.520;11.284;2022-12-13T03:55:26;96946.19;;;-2.95;68.14
15932;BME280;8065;49.520;11.284;2022-12-13T03:57:53;96938.41;;;-2.95;68.56
15932;BME280;8065;49.520;11.284;2022-12-13T04:00:19;96928.94;;;-3.07;68.20
15932;BME280;8065;49.520;11.284;2022-12-13T04:02:46;96938.06;;;-2.77;67.90
15932;BME280;8065;49.520;11.284;2022-12-13T04:05:12;96935.06;;;-2.64;67.56
15932;BME280;8065;49.520;11.284;2022-12-13T04:07:39;96921.59;;;-2.61;67.95
15932;BME280;8065;49.520;11.284;2022-12-13T04:10:08;96928.06;;;-2.90;68.63
15932;BME280;8065;49.520;11.284;2022-12-13T04:12:34;96926.28;;;-2.85;68.15
15932;BME280;8065;49.520;11.284;2022-12-13T04:15:18;96934.19;;;-3.02;68.83
15932;BME280;8065;49.520;11.284;2022-12-13T04:17:45;96929.03;;;-2.97;67.84
15932;BME280;8065;49.520;11.284;2022-12-13T04:20:11;96928.75;;;-3.22;69.11
15932;BME280;8065;49.520;11.284;2022-12-13T04:22:37;96926.56;;;-3.08;68.38
15932;BME280;8065;49.520;11.284;2022-12-13T04:25:04;96933.63;;;-3.04;67.79
15932;BME280;8065;49.520;11.284;2022-12-13T04:27:32;96923.56;;;-3.22;69.02
15932;BME280;8065;49.520;11.284;2022-12-13T04:29:59;96912.38;;;-3.01;68.39
15932;BME280;8065;49.520;11.284;2022-12-13T04:32:25;96913.03;;;-3.59;70.11
15932;BME280;8065;49.520;11.284;2022-12-13T04:34:52;96910.97;;;-3.35;69.01
15932;BME280;8065;49.520;11.284;2022-12-13T04:37:18;96917.56;;;-3.49;68.80
15932;BME280;8065;49.520;11.284;2022-12-13T04:39:44;96918.06;;;-3.25;68.61
15932;BME280;8065;49.520;11.284;2022-12-13T04:42:11;96918.84;;;-3.03;67.86
15932;BME280;8065;49.520;11.284;2022-12-13T04:44:39;96915.31;;;-2.92;67.03
15932;BME280;8065;49.520;11.284;2022-12-13T04:47:05;96920.97;;;-3.22;68.44
15932;BME280;8065;49.520;11.284;2022-12-13T04:49:32;96912.28;;;-2.84;67.47
15932;BME280;8065;49.520;11.284;2022-12-13T04:51:59;96915.66;;;-2.83;67.25
15932;BME280;8065;49.520;11.284;2022-12-13T04:54:26;96910.91;;;-2.91;66.85
15932;BME280;8065;49.520;11.284;2022-12-13T04:56:52;96923.59;;;-2.95;66.70
15932;BME280;8065;49.520;11.284;2022-12-13T04:59:19;96915.88;;;-3.12;67.65
15932;BME280;8065;49.520;11.284;2022-12-13T05:01:47;96921.88;;;-3.11;67.35
15932;BME280;8065;49.520;11.284;2022-12-13T05:04:13;96921.97;;;-3.01;68.05
15932;BME280;8065;49.520;11.284;2022-12-13T05:06:40;96916.53;;;-3.00;68.17
15932;BME280;8065;49.520;11.284;2022-12-13T05:09:06;96918.00;;;-3.09;67.93
15932;BME280;8065;49.520;11.284;2022-12-13T05:11:33;96921.09;;;-3.12;67.90
15932;BME280;8065;49.520;11.284;2022-12-13T05:13:59;96916.47;;;-3.05;67.67
15932;BME280;8065;49.520;11.284;2022-12-13T05:16:25;96910.59;;;-2.95;67.19
15932;BME280;8065;49.520;11.284;2022-12-13T05:18:53;96907.38;;;-3.07;67.97
15932;BME280;8065;49.520;11.284;2022-12-13T05:21:20;96912.38;;;-3.01;67.63
15932;BME280;8065;49.520;11.284;2022-12-13T05:23:46;96922.56;;;-2.94;67.46
15932;BME280;8065;49.520;11.284;2022-12-13T05:26:13;96919.72;;;-2.92;67.85
15932;BME280;8065;49.520;11.284;2022-12-13T05:28:39;96925.69;;;-3.19;67.32
15932;BME280;8065;49.520;11.284;2022-12-13T05:31:07;96925.91;;;-3.47;68.85
15932;BME280;8065;49.520;11.284;2022-12-13T05:33:34;96929.56;;;-3.43;69.39
15932;BME280;8065;49.520;11.284;2022-12-13T05:36:03;96924.81;;;-3.03;67.89
15932;BME280;8065;49.520;11.284;2022-12-13T05:38:30;96927.28;;;-2.91;67.61
15932;BME280;8065;49.520;11.284;2022-12-13T05:40:57;96933.00;;;-2.89;67.91
15932;BME280;8065;49.520;11.284;2022-12-13T05:43:23;96932.13;;;-3.00;67.22
15932;BME280;8065;49.520;11.284;2022-12-13T05:45:50;96923.66;;;-2.90;67.41
15932;BME280;8065;49.520;11.284;2022-12-13T05:48:16;96927.97;;;-3.01;67.20
15932;BME280;8065;49.520;11.284;2022-12-13T05:50:43;96930.41;;;-3.59;68.68
15932;BME280;8065;49.520;11.284;2022-12-13T05:53:11;96930.41;;;-3.59;69.16
15932;BME280;8065;49.520;11.284;2022-12-13T05:55:37;96938.50;;;-3.78;69.97
15932;BME280;8065;49.520;11.284;2022-12-13T05:58:04;96925.19;;;-3.16;68.32
15932;BME280;8065;49.520;11.284;2022-12-13T06:00:30;96930.63;;;-3.17;67.80
15932;BME280;8065;49.520;11.284;2022-12-13T06:02:57;96927.03;;;-3.38;69.04
15932;BME280;8065;49.520;11.284;2022-12-13T06:05:24;96917.53;;;-3.27;68.40
15932;BME280;8065;49.520;11.284;2022-12-13T06:07:52;96922.31;;;-3.41;69.45
15932;BME280;8065;49.520;11.284;2022-12-13T06:10:21;96913.59;;;-3.30;68.62
15932;BME280;8065;49.520;11.284;2022-12-13T06:12:48;96917.19;;;-3.36;68.53
15932;BME280;8065;49.520;11.284;2022-12-13T06:15:14;96912.03;;;-3.31;68.03
15932;BME280;8065;49.520;11.284;2022-12-13T06:17:41;96909.19;;;-3.30;67.91
15932;BME280;8065;49.520;11.284;2022-12-13T06:20:08;96905.88;;;-3.25;67.42
15932;BME280;8065;49.520;11.284;2022-12-13T06:22:35;96902.25;;;-3.24;68.11
15932;BME280;8065;49.520;11.284;2022-12-13T06:25:02;96909.81;;;-3.22;67.70
15932;BME280;8065;49.520;11.284;2022-12-13T06:27:30;96902.84;;;-3.17;68.10
15932;BME280;8065;49.520;11.284;2022-12-13T06:29:56;96905.00;;;-3.09;67.55
15932;BME280;8065;49.520;11.284;2022-12-13T06:32:23;96901.81;;;-3.16;67.31
15932;BME280;8065;49.520;11.284;2022-12-13T06:34:49;96904.75;;;-3.34;67.61
15932;BME280;8065;49.520;11.284;2022-12-13T06:37:15;96900.63;;;-3.30;67.31
15932;BME280;8065;49.520;11.284;2022-12-13T06:39:42;96904.19;;;-3.36;67.36
15932;BME280;8065;49.520;11.284;2022-12-13T06:42:14;96907.81;;;-3.37;67.60
15932;BME280;8065;49.520;11.284;2022-12-13T06:44:42;96921.41;;;-3.30;66.97
15932;BME280;8065;49.520;11.284;2022-12-13T06:47:09;96911.44;;;-3.38;67.02
15932;BME280;8065;49.520;11.284;2022-12-13T06:49:36;96904.78;;;-3.29;67.43
15932;BME280;8065;49.520;11.284;2022-12-13T06:52:03;96909.94;;;-3.34;66.31
15932;BME280;8065;49.520;11.284;2022-12-13T06:54:29;96907.94;;;-3.27;67.01
15932;BME280;8065;49.520;11.284;2022-12-13T06:56:56;96911.31;;;-3.26;66.62
15932;BME280;8065;49.520;11.284;2022-12-13T06:59:22;96905.28;;;-3.32;66.19
15932;BME280;8065;49.520;11.284;2022-12-13T07:01:50;96912.53;;;-3.34;66.66
15932;BME280;8065;49.520;11.284;2022-12-13T07:04:17;96920.38;;;-3.29;67.30
15932;BME280;8065;49.520;11.284;2022-12-13T07:06:43;96916.31;;;-3.20;66.27
15932;BME280;8065;49.520;11.284;2022-12-13T07:09:09;96921.28;;;-3.18;66.67
15932;BME280;8065;49.520;11.284;2022-12-13T07:11:36;96909.94;;;-3.34;66.90
15932;BME280;8065;49.520;11.284;2022-12-13T07:14:02;96916.38;;;-3.37;67.23
15932;BME280;8065;49.520;11.284;2022-12-13T07:16:29;96909.75;;;-3.27;67.96
15932;BME280;8065;49.520;11.284;2022-12-13T07:18:58;96907.28;;;-3.83;68.77
15932;BME280;8065;49.520;11.284;2022-12-13T07:21:25;96906.22;;;-3.65;69.44
15932;BME280;8065;49.520;11.284;2022-12-13T07:23:51;96903.69;;;-3.60;69.92
15932;BME280;8065;49.520;11.284;2022-12-13T07:26:18;96907.81;;;-3.37;70.74
15932;BME280;8065;49.520;11.284;2022-12-13T07:28:45;96913.75;;;-2.93;69.02
15932;BME280;8065;49.520;11.284;2022-12-13T07:31:13;96918.34;;;-2.73;68.21
15932;BME280;8065;49.520;11.284;2022-12-13T07:33:40;96930.22;;;-2.18;68.35
15932;BME280;8065;49.520;11.284;2022-12-13T07:36:12;96918.56;;;-1.58;66.45
15932;BME280;8065;49.520;11.284;2022-12-13T07:38:39;96917.13;;;-1.34;65.67
15932;BME280;8065;49.520;11.284;2022-12-13T07:41:06;96917.75;;;-0.96;64.25
15932;BME280;8065;49.520;11.284;2022-12-13T07:43:33;96913.63;;;-0.42;63.16
15932;BME280;8065;49.520;11.284;2022-12-13T07:46:01;96911.00;;;-0.21;62.00
15932;BME280;8065;49.520;11.284;2022-12-13T07:48:28;96920.25;;;0.51;62.03
15932;BME280;8065;49.520;11.284;2022-12-13T07:51:00;96924.75;;;0.35;61.02
15932;BME280;8065;49.520;11.284;2022-12-13T07:53:28;96918.56;;;0.85;60.47
15932;BME280;8065;49.520;11.284;2022-12-13T07:55:55;96910.59;;;1.45;58.95
15932;BME280;8065;49.520;11.284;2022-12-13T07:58:21;96912.00;;;1.66;57.79
15932;BME280;8065;49.520;11.284;2022-12-13T08:00:48;96912.16;;;2.33;56.61
15932;BME280;8065;49.520;11.284;2022-12-13T08:03:14;96905.44;;;2.69;56.68
15932;BME280;8065;49.520;11.284;2022-12-13T08:05:41;96901.84;;;2.17;55.57
15932;BME280;8065;49.520;11.284;2022-12-13T08:08:09;96902.91;;;1.87;55.57
15932;BME280;8065;49.520;11.284;2022-12-13T08:10:37;96905.31;;;2.37;55.67
15932;BME280;8065;49.520;11.284;2022-12-13T08:13:04;96912.75;;;2.72;55.76
15932;BME280;8065;49.520;11.284;2022-12-13T08:15:31;96905.31;;;2.79;55.17
15932;BME280;8065;49.520;11.284;2022-12-13T08:17:57;96912.41;;;2.79;54.44
15932;BME280;8065;49.520;11.284;2022-12-13T08:20:25;96915.38;;;2.72;55.49
15932;BME280;8065;49.520;11.284;2022-12-13T08:22:56;96913.56;;;2.91;54.82
15932;BME280;8065;49.520;11.284;2022-12-13T08:25:23;96915.28;;;3.20;55.70
15932;BME280;8065;49.520;11.284;2022-12-13T08:27:52;96912.88;;;3.75;54.01
15932;BME280;8065;49.520;11.284;2022-12-13T08:30:18;96925.44;;;4.10;52.21
15932;BME280;8065;49.520;11.284;2022-12-13T08:32:45;96929.66;;;3.60;52.20
15932;BME280;8065;49.520;11.284;2022-12-13T08:35:11;96914.84;;;4.70;51.69
15932;BME280;8065;49.520;11.284;2022-12-13T08:37:38;96928.38;;;4.50;50.73
15932;BME280;8065;49.520;11.284;2022-12-13T08:40:05;96920.38;;;4.82;50.29
15932;BME280;8065;49.520;11.284;2022-12-13T08:42:32;96922.72;;;5.34;50.39
15932;BME280;8065;49.520;11.284;2022-12-13T08:44:59;96908.13;;;6.25;48.80
15932;BME280;8065;49.520;11.284;2022-12-13T08:47:26;96906.69;;;5.08;50.70
15932;BME280;8065;49.520;11.284;2022-12-13T08:49:54;96915.81;;;5.24;50.19
15932;BME280;8065;49.520;11.284;2022-12-13T08:52:23;96913.09;;;5.74;49.89
15932;BME280;8065;49.520;11.284;2022-12-13T08:54:49;96921.25;;;4.91;50.90
15932;BME280;8065;49.520;11.284;2022-12-13T08:57:16;96921.31;;;5.14;51.32
15932;BME280;8065;49.520;11.284;2022-12-13T08:59:42;96926.22;;;4.52;52.39
15932;BME280;8065;49.520;11.284;2022-12-13T09:02:12;96932.66;;;4.73;53.17
15932;BME280;8065;49.520;11.284;2022-12-13T09:04:38;96926.34;;;5.24;51.04
15932;BME280;8065;49.520;11.284;2022-12-13T09:07:05;96923.59;;;5.29;51.96
15932;BME280;8065;49.520;11.284;2022-12-13T09:09:31;96927.44;;;5.45;51.01
15932;BME280;8065;49.520;11.284;2022-12-13T09:11:58;96933.06;;;4.80;51.80
15932;BME280;8065;49.520;11.284;2022-12-13T09:14:24;96920.38;;;4.41;53.92
15932;BME280;8065;49.520;11.284;2022-12-13T09:16:51;96928.28;;;4.55;52.47
15932;BME280;8065;49.520;11.284;2022-12-13T09:19:19;96922.53;;;4.80;52.50
15932;BME280;8065;49.520;11.284;2022-12-13T09:21:46;96921.94;;;4.56;53.69
15932;BME280;8065;49.520;11.284;2022-12-13T09:24:12;96924.97;;;4.90;53.31
15932;BME280;8065;49.520;11.284;2022-12-13T09:26:39;96927.91;;;5.25;52.63
15932;BME280;8065;49.520;11.284;2022-12-13T09:29:06;96920.56;;;5.00;52.43
15932;BME280;8065;49.520;11.284;2022-12-13T09:31:32;96918.59;;;5.41;51.94
15932;BME280;8065;49.520;11.284;2022-12-13T09:34:00;96911.56;;;5.37;52.26
15932;BME280;8065;49.520;11.284;2022-12-13T09:36:27;96911.50;;;5.28;52.87
15932;BME280;8065;49.520;11.284;2022-12-13T09:38:54;96909.63;;;5.06;53.63
15932;BME280;8065;49.520;11.284;2022-12-13T09:41:27;96906.31;;;5.37;52.47
15932;BME280;8065;49.520;11.284;2022-12-13T09:43:56;96896.44;;;5.42;53.06
15932;BME280;8065;49.520;11.284;2022-12-13T09:46:28;96896.34;;;5.11;54.33
15932;BME280;8065;49.520;11.284;2022-12-13T09:48:57;96899.63;;;5.53;53.52
15932;BME280;8065;49.520;11.284;2022-12-13T09:51:24;96906.13;;;5.33;53.49
15932;BME280;8065;49.520;11.284;2022-12-13T09:53:53;96896.91;;;5.67;52.96
15932;BME280;8065;49.520;11.284;2022-12-13T09:56:21;96896.50;;;6.27;51.76
15932;BME280;8065;49.520;11.284;2022-12-13T09:58:50;96900.88;;;6.79;49.88
15932;BME280;8065;49.520;11.284;2022-12-13T10:01:17;96899.59;;;5.89;50.16
15932;BME280;8065;49.520;11.284;2022-12-13T10:03:47;96908.88;;;5.28;52.21
15932;BME280;8065;49.520;11.284;2022-12-13T10:06:16;96904.28;;;6.71;50.91
15932;BME280;8065;49.520;11.284;2022-12-13T10:08:45;96910.13;;;6.20;50.14
15932;BME280;8065;49.520;11.284;2022-12-13T10:11:16;96910.22;;;6.06;51.36
15932;BME280;8065;49.520;11.284;2022-12-13T10:13:45;96908.81;;;5.19;52.78
15932;BME280;8065;49.520;11.284;2022-12-13T10:16:17;96906.81;;;5.83;53.04
15932;BME280;8065;49.520;11.284;2022-12-13T10:18:44;96901.59;;;5.70;52.09
15932;BME280;8065;49.520;11.284;2022-12-13T10:21:13;96902.84;;;5.50;51.89
15932;BME280;8065;49.520;11.284;2022-12-13T10:23:42;96908.63;;;5.16;52.18
15932;BME280;8065;49.520;11.284;2022-12-13T10:26:10;96896.97;;;4.94;54.69
15932;BME280;8065;49.520;11.284;2022-12-13T10:28:39;96900.13;;;3.49;56.28
15932;BME280;8065;49.520;11.284;2022-12-13T10:31:07;96903.69;;;4.05;56.31
15932;BME280;8065;49.520;11.284;2022-12-13T10:33:36;96894.66;;;4.11;55.25
15932;BME280;8065;49.520;11.284;2022-12-13T10:36:07;96898.94;;;4.48;56.61
15932;BME280;8065;49.520;11.284;2022-12-13T10:38:36;96891.63;;;5.22;54.67
15932;BME280;8065;49.520;11.284;2022-12-13T10:41:27;96891.34;;;4.46;54.88
15932;BME280;8065;49.520;11.284;2022-12-13T10:44:15;96890.75;;;4.36;55.93
15932;BME280;8065;49.520;11.284;2022-12-13T10:46:48;96894.19;;;4.50;56.19
15932;BME280;8065;49.520;11.284;2022-12-13T10:49:17;96894.47;;;4.62;54.62
15932;BME280;8065;49.520;11.284;2022-12-13T10:51:45;96883.09;;;5.03;54.11
15932;BME280;8065;49.520;11.284;2022-12-13T10:54:15;96884.47;;;5.58;53.74
15932;BME280;8065;49.520;11.284;2022-12-13T10:56:45;96874.03;;;5.53;52.98
15932;BME280;8065;49.520;11.284;2022-12-13T10:59:24;96881.78;;;5.50;54.52
15932;BME280;8065;49.520;11.284;2022-12-13T11:01:52;96872.72;;;5.20;54.54
15932;BME280;8065;49.520;11.284;2022-12-13T11:04:22;96869.53;;;5.32;53.67
15932;BME280;8065;49.520;11.284;2022-12-13T11:06:49;96869.50;;;5.45;54.30
15932;BME280;8065;49.520;11.284;2022-12-13T11:09:24;96870.41;;;5.18;54.20
15932;BME280;8065;49.520;11.284;2022-12-13T11:11:51;96865.41;;;5.39;54.81
15932;BME280;8065;49.520;11.284;2022-12-13T11:14:22;96864.06;;;5.19;54.11
15932;BME280;8065;49.520;11.284;2022-12-13T11:16:53;96857.56;;;5.48;54.11
15932;BME280;8065;49.520;11.284;2022-12-13T11:19:24;96853.44;;;5.11;54.52
15932;BME280;8065;49.520;11.284;2022-12-13T11:21:52;96858.34;;;5.04;53.71
15932;BME280;8065;49.520;11.284;2022-12-13T11:24:21;96861.13;;;4.85;54.20
15932;BME280;8065;49.520;11.284;2022-12-13T11:26:52;96856.59;;;4.99;54.36
15932;BME280;8065;49.520;11.284;2022-12-13T11:29:36;96852.72;;;5.64;53.35
15932;BME280;8065;49.520;11.284;2022-12-13T11:32:09;96848.75;;;6.37;52.17
15932;BME280;8065;49.520;11.284;2022-12-13T11:34:44;96840.63;;;5.40;52.52
15932;BME280;8065;49.520;11.284;2022-12-13T11:37:23;96835.31;;;6.73;52.18
15932;BME280;8065;49.520;11.284;2022-12-13T11:39:53;96833.00;;;7.40;50.30
15932;BME280;8065;49.520;11.284;2022-12-13T11:42:25;96832.78;;;6.42;50.74
15932;BME280;8065;49.520;11.284;2022-12-13T11:45:00;96834.69;;;6.67;52.16
15932;BME280;8065;49.520;11.284;2022-12-13T11:47:34;96825.03;;;5.97;51.73
15932;BME280;8065;49.520;11.284;2022-12-13T11:50:11;96832.97;;;6.63;50.69
15932;BME280;8065;49.520;11.284;2022-12-13T11:52:43;96831.56;;;6.08;51.61
15932;BME280;8065;49.520;11.284;2022-12-13T11:55:16;96834.66;;;6.02;51.66
15932;BME280;8065;49.520;11.284;2022-12-13T11:57:46;96827.44;;;6.24;51.15
15932;BME280;8065;49.520;11.284;2022-12-13T12:00:24;96821.91;;;5.42;52.29
15932;BME280;8065;49.520;11.284;2022-12-13T12:02:57;96813.19;;;5.64;51.69
15932;BME280;8065;49.520;11.284;2022-12-13T12:05:28;96810.47;;;5.46;53.10
15932;BME280;8065;49.520;11.284;2022-12-13T12:07:58;96811.41;;;5.28;52.65
15932;BME280;8065;49.520;11.284;2022-12-13T12:10:29;96813.44;;;5.53;53.15
15932;BME280;8065;49.520;11.284;2022-12-13T12:13:04;96809.75;;;5.10;52.88
15932;BME280;8065;49.520;11.284;2022-12-13T12:15:35;96811.78;;;4.90;53.57
15932;BME280;8065;49.520;11.284;2022-12-13T12:18:09;96807.66;;;5.74;53.00
15932;BME280;8065;49.520;11.284;2022-12-13T12:20:50;96809.06;;;5.49;52.30
15932;BME280;8065;49.520;11.284;2022-12-13T12:23:27;96806.88;;;5.42;53.12
15932;BME280;8065;49.520;11.284;2022-12-13T12:26:05;96808.91;;;5.23;52.38
15932;BME280;8065;49.520;11.284;2022-12-13T12:28:46;96806.69;;;5.92;51.00
15932;BME280;8065;49.520;11.284;2022-12-13T12:31:23;96798.38;;;6.81;50.34
15932;BME280;8065;49.520;11.284;2022-12-13T12:34:00;96799.13;;;5.99;51.47
15932;BME280;8065;49.520;11.284;2022-12-13T12:36:40;96795.31;;;5.83;50.82
15932;BME280;8065;49.520;11.284;2022-12-13T12:39:40;96797.78;;;5.26;52.12
15932;BME280;8065;49.520;11.284;2022-12-13T12:42:33;96778.34;;;5.67;52.54
15932;BME280;8065;49.520;11.284;2022-12-13T12:45:17;96775.34;;;5.59;52.06
15932;BME280;8065;49.520;11.284;2022-12-13T12:47:55;96785.84;;;5.28;52.39
15932;BME280;8065;49.520;11.284;2022-12-13T12:50:37;96789.44;;;5.33;52.73
15932;BME280;8065;49.520;11.284;2022-12-13T12:53:20;96783.13;;;5.65;52.69
15932;BME280;8065;49.520;11.284;2022-12-13T12:55:56;96786.50;;;5.56;51.20
15932;BME280;8065;49.520;11.284;2022-12-13T12:58:29;96785.19;;;5.45;51.42
15932;BME280;8065;49.520;11.284;2022-12-13T13:01:09;96790.13;;;4.93;52.85
15932;BME280;8065;49.520;11.284;2022-12-13T13:03:39;96790.56;;;4.73;52.62
15932;BME280;8065;49.520;11.284;2022-12-13T13:06:11;96792.72;;;4.71;52.38
15932;BME280;8065;49.520;11.284;2022-12-13T13:08:42;96793.69;;;4.75;52.56
15932;BME280;8065;49.520;11.284;2022-12-13T13:11:10;96791.69;;;4.94;53.10
15932;BME280;8065;49.520;11.284;2022-12-13T13:13:44;96796.97;;;4.81;52.49
15932;BME280;8065;49.520;11.284;2022-12-13T13:16:30;96803.25;;;4.71;52.16
15932;BME280;8065;49.520;11.284;2022-12-13T13:18:57;96808.81;;;5.06;51.48